Aviation Digital Data Service (ADDS)

Output produced by METARs form (1541 UTC 24 August 2019)
found at http://www.aviationweather.gov/metar/data/
 
METAR text: RJNT 241200Z VRB02KT 9999 FEW020 SCT080 BKN/// 24/22 Q1010
Conditions at: RJNT (TOYAMA AIRPORT , JP) observed 1200 UTC 24 August 2019
Temperature: 24.0°C (75°F)
Dewpoint: 22.0°C (72°F) [RH = 89%]
Pressure (altimeter): 29.82 inches Hg (1010.0 mb)
Winds: variable direction winds at 2 MPH (2 knots; 1.0 m/s)
Visibility: 6 or more miles (10+ km)
Ceiling: at least 12,000 feet AGL
Clouds: few clouds at 2000 feet AGL
scattered clouds at 8000 feet AGL
Weather: no significant weather observed at this time

METAR text: RJNT 241100Z VRB02KT 9999 FEW020 SCT025 BKN080 25/22 Q1010
Conditions at: RJNT (TOYAMA AIRPORT , JP) observed 1100 UTC 24 August 2019
Temperature: 25.0°C (77°F)
Dewpoint: 22.0°C (72°F) [RH = 83%]
Pressure (altimeter): 29.82 inches Hg (1010.0 mb)
Winds: variable direction winds at 2 MPH (2 knots; 1.0 m/s)
Visibility: 6 or more miles (10+ km)
Ceiling: 8000 feet AGL
Clouds: few clouds at 2000 feet AGL
scattered clouds at 2500 feet AGL
broken clouds at 8000 feet AGL
Weather: no significant weather observed at this time

METAR text: RJNT 241000Z 00000KT 9999 FEW020 SCT060 BKN150 26/22 Q1010
Conditions at: RJNT (TOYAMA AIRPORT , JP) observed 1000 UTC 24 August 2019
Temperature: 26.0°C (79°F)
Dewpoint: 22.0°C (72°F) [RH = 79%]
Pressure (altimeter): 29.82 inches Hg (1010.0 mb)
Winds: calm
Visibility: 6 or more miles (10+ km)
Ceiling: 15000 feet AGL
Clouds: few clouds at 2000 feet AGL
scattered clouds at 6000 feet AGL
broken clouds at 15000 feet AGL
Weather: no significant weather observed at this time

METAR text: RJNT 240900Z 28004KT 240V320 9999 VCSH FEW020 FEW030TCU SCT050 BKN/// 26/22 Q1010
Conditions at: RJNT (TOYAMA AIRPORT , JP) observed 0900 UTC 24 August 2019
Temperature: 26.0°C (79°F)
Dewpoint: 22.0°C (72°F) [RH = 79%]
Pressure (altimeter): 29.82 inches Hg (1010.0 mb)
Winds: from the W (280 degrees) at 5 MPH (4 knots; 2.1 m/s)
Visibility: 6 or more miles (10+ km)
Ceiling: at least 12,000 feet AGL
Clouds: few clouds at 2000 feet AGL
few clouds at 3000 feet AGL
scattered clouds at 5000 feet AGL
Weather: VCSH  (showers in vicinity)

METAR text: RJNT 240800Z 30006KT 260V330 9999 FEW020 FEW030TCU SCT050 BKN/// 26/21 Q1009
Conditions at: RJNT (TOYAMA AIRPORT , JP) observed 0800 UTC 24 August 2019
Temperature: 26.0°C (79°F)
Dewpoint: 21.0°C (70°F) [RH = 74%]
Pressure (altimeter): 29.79 inches Hg (1009.0 mb)
Winds: from the WNW (300 degrees) at 7 MPH (6 knots; 3.1 m/s)
Visibility: 6 or more miles (10+ km)
Ceiling: at least 12,000 feet AGL
Clouds: few clouds at 2000 feet AGL
few clouds at 3000 feet AGL
scattered clouds at 5000 feet AGL
Weather: no significant weather observed at this time

METAR text: RJNT 240700Z 28008KT 9999 VCSH FEW020 FEW030TCU SCT060 BKN/// 27/20 Q1009
Conditions at: RJNT (TOYAMA AIRPORT , JP) observed 0700 UTC 24 August 2019
Temperature: 27.0°C (81°F)
Dewpoint: 20.0°C (68°F) [RH = 66%]
Pressure (altimeter): 29.79 inches Hg (1009.0 mb)
Winds: from the W (280 degrees) at 9 MPH (8 knots; 4.1 m/s)
Visibility: 6 or more miles (10+ km)
Ceiling: at least 12,000 feet AGL
Clouds: few clouds at 2000 feet AGL
few clouds at 3000 feet AGL
scattered clouds at 6000 feet AGL
Weather: VCSH  (showers in vicinity)

METAR text: RJNT 240600Z 29009KT 260V320 9999 VCSH FEW020 SCT030 BKN/// 28/20 Q1009
Conditions at: RJNT (TOYAMA AIRPORT , JP) observed 0600 UTC 24 August 2019
Temperature: 28.0°C (82°F)
Dewpoint: 20.0°C (68°F) [RH = 62%]
Pressure (altimeter): 29.79 inches Hg (1009.0 mb)
Winds: from the WNW (290 degrees) at 10 MPH (9 knots; 4.6 m/s)
Visibility: 6 or more miles (10+ km)
Ceiling: at least 12,000 feet AGL
Clouds: few clouds at 2000 feet AGL
scattered clouds at 3000 feet AGL
Weather: VCSH  (showers in vicinity)

METAR text: RJNT 240500Z 28010KT 250V310 9999 FEW030 BKN/// 29/20 Q1008
Conditions at: RJNT (TOYAMA AIRPORT , JP) observed 0500 UTC 24 August 2019
Temperature: 29.0°C (84°F)
Dewpoint: 20.0°C (68°F) [RH = 58%]
Pressure (altimeter): 29.76 inches Hg (1008.0 mb)
Winds: from the W (280 degrees) at 12 MPH (10 knots; 5.1 m/s)
Visibility: 6 or more miles (10+ km)
Ceiling: at least 12,000 feet AGL
Clouds: few clouds at 3000 feet AGL
Weather: no significant weather observed at this time

METAR text: RJNT 240400Z 30008KT 260V330 9999 FEW030 BKN/// 30/19 Q1008
Conditions at: RJNT (TOYAMA AIRPORT , JP) observed 0400 UTC 24 August 2019
Temperature: 30.0°C (86°F)
Dewpoint: 19.0°C (66°F) [RH = 52%]
Pressure (altimeter): 29.76 inches Hg (1008.0 mb)
Winds: from the WNW (300 degrees) at 9 MPH (8 knots; 4.1 m/s)
Visibility: 6 or more miles (10+ km)
Ceiling: at least 12,000 feet AGL
Clouds: few clouds at 3000 feet AGL
Weather: no significant weather observed at this time

METAR text: RJNT 240300Z 25008KT 220V280 9999 FEW030 29/18 Q1009
Conditions at: RJNT (TOYAMA AIRPORT , JP) observed 0300 UTC 24 August 2019
Temperature: 29.0°C (84°F)
Dewpoint: 18.0°C (64°F) [RH = 52%]
Pressure (altimeter): 29.79 inches Hg (1009.0 mb)
Winds: from the WSW (250 degrees) at 9 MPH (8 knots; 4.1 m/s)
Visibility: 6 or more miles (10+ km)
Ceiling: at least 12,000 feet AGL
Clouds: few clouds at 3000 feet AGL
Weather: no significant weather observed at this time

METAR text: RJNT 240200Z 26006KT 210V300 9999 FEW030 SCT/// 29/19 Q1009
Conditions at: RJNT (TOYAMA AIRPORT , JP) observed 0200 UTC 24 August 2019
Temperature: 29.0°C (84°F)
Dewpoint: 19.0°C (66°F) [RH = 55%]
Pressure (altimeter): 29.79 inches Hg (1009.0 mb)
Winds: from the W (260 degrees) at 7 MPH (6 knots; 3.1 m/s)
Visibility: 6 or more miles (10+ km)
Ceiling: at least 12,000 feet AGL
Clouds: few clouds at 3000 feet AGL
Weather: no significant weather observed at this time

METAR text: RJNT 240100Z 23003KT 170V300 9999 FEW040 BKN/// 27/19 Q1009
Conditions at: RJNT (TOYAMA AIRPORT , JP) observed 0100 UTC 24 August 2019
Temperature: 27.0°C (81°F)
Dewpoint: 19.0°C (66°F) [RH = 62%]
Pressure (altimeter): 29.79 inches Hg (1009.0 mb)
Winds: from the SW (230 degrees) at 3 MPH (3 knots; 1.5 m/s)
Visibility: 6 or more miles (10+ km)
Ceiling: at least 12,000 feet AGL
Clouds: few clouds at 4000 feet AGL
Weather: no significant weather observed at this time

METAR text: RJNT 240000Z VRB02KT 9999 FEW030 BKN/// 26/19 Q1010
Conditions at: RJNT (TOYAMA AIRPORT , JP) observed 0000 UTC 24 August 2019
Temperature: 26.0°C (79°F)
Dewpoint: 19.0°C (66°F) [RH = 65%]
Pressure (altimeter): 29.82 inches Hg (1010.0 mb)
Winds: variable direction winds at 2 MPH (2 knots; 1.0 m/s)
Visibility: 6 or more miles (10+ km)
Ceiling: at least 12,000 feet AGL
Clouds: few clouds at 3000 feet AGL
Weather: no significant weather observed at this time

METAR text: RJNT 232300Z 23004KT 170V260 9999 FEW030 SCT070 BKN/// 24/20 Q1009
Conditions at: RJNT (TOYAMA AIRPORT , JP) observed 2300 UTC 23 August 2019
Temperature: 24.0°C (75°F)
Dewpoint: 20.0°C (68°F) [RH = 78%]
Pressure (altimeter): 29.79 inches Hg (1009.0 mb)
Winds: from the SW (230 degrees) at 5 MPH (4 knots; 2.1 m/s)
Visibility: 6 or more miles (10+ km)
Ceiling: at least 12,000 feet AGL
Clouds: few clouds at 3000 feet AGL
scattered clouds at 7000 feet AGL
Weather: no significant weather observed at this time

METAR text: RJNT 232200Z 22003KT 9999 FEW020 SCT080 BKN/// 22/19 Q1009
Conditions at: RJNT (TOYAMA AIRPORT , JP) observed 2200 UTC 23 August 2019
Temperature: 22.0°C (72°F)
Dewpoint: 19.0°C (66°F) [RH = 83%]
Pressure (altimeter): 29.79 inches Hg (1009.0 mb)
Winds: from the SW (220 degrees) at 3 MPH (3 knots; 1.5 m/s)
Visibility: 6 or more miles (10+ km)
Ceiling: at least 12,000 feet AGL
Clouds: few clouds at 2000 feet AGL
scattered clouds at 8000 feet AGL
Weather: no significant weather observed at this time

METAR text: RJNT 232110Z 17005KT 130V200 9999 FEW010 BKN/// 21/18 Q1009 RMK 1ST010 A2981
Conditions at: RJNT (TOYAMA AIRPORT , JP) observed 2110 UTC 23 August 2019
Temperature: 21.0°C (70°F)
Dewpoint: 18.0°C (64°F) [RH = 83%]
Pressure (altimeter): 29.79 inches Hg (1009.0 mb)
Winds: from the S (170 degrees) at 6 MPH (5 knots; 2.6 m/s)
Visibility: 6 or more miles (10+ km)
Ceiling: at least 12,000 feet AGL
Clouds: few clouds at 1000 feet AGL
Weather: no significant weather observed at this time

METAR text: RJNT 231200Z 18004KT 9999 FEW020 SCT120 BKN/// 25/20 Q1008
Conditions at: RJNT (TOYAMA AIRPORT , JP) observed 1200 UTC 23 August 2019
Temperature: 25.0°C (77°F)
Dewpoint: 20.0°C (68°F) [RH = 74%]
Pressure (altimeter): 29.76 inches Hg (1008.0 mb)
Winds: from the S (180 degrees) at 5 MPH (4 knots; 2.1 m/s)
Visibility: 6 or more miles (10+ km)
Ceiling: at least 12,000 feet AGL
Clouds: few clouds at 2000 feet AGL
scattered clouds at 12000 feet AGL
Weather: no significant weather observed at this time

METAR text: RJNT 231100Z 21003KT 170V240 9999 FEW020 BKN120 BKN/// 25/23 Q1008
Conditions at: RJNT (TOYAMA AIRPORT , JP) observed 1100 UTC 23 August 2019
Temperature: 25.0°C (77°F)
Dewpoint: 23.0°C (73°F) [RH = 89%]
Pressure (altimeter): 29.76 inches Hg (1008.0 mb)
Winds: from the SSW (210 degrees) at 3 MPH (3 knots; 1.5 m/s)
Visibility: 6 or more miles (10+ km)
Ceiling: 12000 feet AGL
Clouds: few clouds at 2000 feet AGL
broken clouds at 12000 feet AGL
Weather: no significant weather observed at this time

METAR text: RJNT 231000Z VRB02KT 9999 VCSH FEW020 BKN110 BKN/// 25/23 Q1007
Conditions at: RJNT (TOYAMA AIRPORT , JP) observed 1000 UTC 23 August 2019
Temperature: 25.0°C (77°F)
Dewpoint: 23.0°C (73°F) [RH = 89%]
Pressure (altimeter): 29.73 inches Hg (1007.0 mb)
Winds: variable direction winds at 2 MPH (2 knots; 1.0 m/s)
Visibility: 6 or more miles (10+ km)
Ceiling: 11000 feet AGL
Clouds: few clouds at 2000 feet AGL
broken clouds at 11000 feet AGL
Weather: VCSH  (showers in vicinity)

METAR text: RJNT 230900Z 22008KT 9999 -SHRA FEW010 BKN110 BKN/// 25/22 Q1007
Conditions at: RJNT (TOYAMA AIRPORT , JP) observed 0900 UTC 23 August 2019
Temperature: 25.0°C (77°F)
Dewpoint: 22.0°C (72°F) [RH = 83%]
Pressure (altimeter): 29.73 inches Hg (1007.0 mb)
Winds: from the SW (220 degrees) at 9 MPH (8 knots; 4.1 m/s)
Visibility: 6 or more miles (10+ km)
Ceiling: 11000 feet AGL
Clouds: few clouds at 1000 feet AGL
broken clouds at 11000 feet AGL
Weather: -SHRA  (light rain showers)

METAR text: RJNT 230800Z 27005KT 240V310 9000 -SHRA FEW020 SCT030 BKN090 26/23 Q1007
Conditions at: RJNT (TOYAMA AIRPORT , JP) observed 0800 UTC 23 August 2019
Temperature: 26.0°C (79°F)
Dewpoint: 23.0°C (73°F) [RH = 84%]
Pressure (altimeter): 29.73 inches Hg (1007.0 mb)
Winds: from the W (270 degrees) at 6 MPH (5 knots; 2.6 m/s)
Visibility: 6 miles ( 9 km)
Ceiling: 9000 feet AGL
Clouds: few clouds at 2000 feet AGL
scattered clouds at 3000 feet AGL
broken clouds at 9000 feet AGL
Weather: -SHRA  (light rain showers)

METAR text: RJNT 230700Z 26006KT 220V300 9999 VCSH FEW020 SCT080 BKN150 27/23 Q1006
Conditions at: RJNT (TOYAMA AIRPORT , JP) observed 0700 UTC 23 August 2019
Temperature: 27.0°C (81°F)
Dewpoint: 23.0°C (73°F) [RH = 79%]
Pressure (altimeter): 29.70 inches Hg (1006.0 mb)
Winds: from the W (260 degrees) at 7 MPH (6 knots; 3.1 m/s)
Visibility: 6 or more miles (10+ km)
Ceiling: 15000 feet AGL
Clouds: few clouds at 2000 feet AGL
scattered clouds at 8000 feet AGL
broken clouds at 15000 feet AGL
Weather: VCSH  (showers in vicinity)

METAR text: RJNT 230600Z 28007KT 9999 FEW020 BKN150 27/23 Q1006
Conditions at: RJNT (TOYAMA AIRPORT , JP) observed 0600 UTC 23 August 2019
Temperature: 27.0°C (81°F)
Dewpoint: 23.0°C (73°F) [RH = 79%]
Pressure (altimeter): 29.70 inches Hg (1006.0 mb)
Winds: from the W (280 degrees) at 8 MPH (7 knots; 3.6 m/s)
Visibility: 6 or more miles (10+ km)
Ceiling: 15000 feet AGL
Clouds: few clouds at 2000 feet AGL
broken clouds at 15000 feet AGL
Weather: no significant weather observed at this time

METAR text: RJNT 230500Z 29007KT 260V330 9999 FEW020 BKN150 29/22 Q1006
Conditions at: RJNT (TOYAMA AIRPORT , JP) observed 0500 UTC 23 August 2019
Temperature: 29.0°C (84°F)
Dewpoint: 22.0°C (72°F) [RH = 66%]
Pressure (altimeter): 29.70 inches Hg (1006.0 mb)
Winds: from the WNW (290 degrees) at 8 MPH (7 knots; 3.6 m/s)
Visibility: 6 or more miles (10+ km)
Ceiling: 15000 feet AGL
Clouds: few clouds at 2000 feet AGL
broken clouds at 15000 feet AGL
Weather: no significant weather observed at this time

METAR text: RJNT 230400Z 25006KT 200V280 9999 FEW020 BKN150 BKN170 28/22 Q1006
Conditions at: RJNT (TOYAMA AIRPORT , JP) observed 0400 UTC 23 August 2019
Temperature: 28.0°C (82°F)
Dewpoint: 22.0°C (72°F) [RH = 70%]
Pressure (altimeter): 29.70 inches Hg (1006.0 mb)
Winds: from the WSW (250 degrees) at 7 MPH (6 knots; 3.1 m/s)
Visibility: 6 or more miles (10+ km)
Ceiling: 15000 feet AGL
Clouds: few clouds at 2000 feet AGL
broken clouds at 15000 feet AGL
broken clouds at 17000 feet AGL
Weather: no significant weather observed at this time

Forecast for: RJNT (TOYAMA AIRPORT , JP)
Text: TAF RJNT 241105Z 2412/2518 19004KT 9999 FEW010 SCT030
Forecast period: 1200 UTC 24 August 2019 to 0000 UTC 25 August 2019
Forecast type: FROM: standard forecast or significant change
Winds: from the S (190 degrees) at 5 MPH (4 knots; 2.1 m/s)
Visibility: 6 or more miles 10+ km)
Ceiling: at least 12,000 feet AGL
Clouds: few clouds at 1000 feet AGL
scattered clouds at 3000 feet AGL
Weather: no significant weather forecast for this period
Text: BECMG 2500/2503 29012KT
Forecast period: 0000 to 0600 UTC 25 August 2019
Forecast type: BECOMING: Conditions expected to become as follows by 0300 UTC 25 August 2019
Winds: from the WNW (290 degrees) at 14 MPH (12 knots; 6.2 m/s)
Visibility: 6 or more miles 10+ km)
Ceiling: at least 12,000 feet AGL
Clouds: few clouds at 1000 feet AGL
scattered clouds at 3000 feet AGL
Weather: no significant weather forecast for this period
Text: BECMG 2506/2509 24004KT
Forecast period: 0600 to 1800 UTC 25 August 2019
Forecast type: BECOMING: Conditions expected to become as follows by 0900 UTC 25 August 2019
Winds: from the WSW (240 degrees) at 5 MPH (4 knots; 2.1 m/s)
Visibility: 6 or more miles 10+ km)
Ceiling: at least 12,000 feet AGL
Clouds: few clouds at 1000 feet AGL
scattered clouds at 3000 feet AGL
Weather: no significant weather forecast for this period